Time;durP1;ratioP1;P1;durP2;ratioP2;P2;SDS_P1;SDS_P2;PMS_P1;PMS_P2;Temp;Humidity;BMP_temperature;BMP_pressure;BME280_temperature;BME280_humidity;BME280_pressure;Samples;Min_cycle;Max_cycle;Signal;HPM_P1;HPM_P2
2022/05/08 00:02:13;;;;;;;34.92;26.48;;;11.10;99.90;;;;;;5076027;28;20028;-84
2022/05/08 00:04:39;;;;;;;35.40;28.67;;;11.10;99.90;;;;;;5057959;28;20508;-84
2022/05/08 00:07:05;;;;;;;37.33;29.45;;;11.10;99.90;;;;;;5075843;28;20020;-84
2022/05/08 00:09:31;;;;;;;33.17;27.92;;;11.10;99.90;;;;;;5057166;28;20056;-84
2022/05/08 00:11:57;;;;;;;36.85;30.08;;;11.20;99.90;;;;;;5075322;28;20086;-81
2022/05/08 00:14:22;;;;;;;34.17;28.30;;;11.20;99.90;;;;;;5075682;28;20078;-81
2022/05/08 00:16:48;;;;;;;34.70;28.42;;;11.20;99.90;;;;;;5075609;28;20108;-81
2022/05/08 00:19:13;;;;;;;34.80;29.13;;;11.20;99.90;;;;;;5074850;28;20032;-81
2022/05/08 00:21:39;;;;;;;36.08;29.50;;;11.20;99.90;;;;;;5075449;28;20060;-81
2022/05/08 00:24:05;;;;;;;37.22;29.88;;;11.20;99.90;;;;;;5074885;28;20028;-81
2022/05/08 00:26:31;;;;;;;33.55;28.08;;;11.20;99.90;;;;;;5056976;28;20121;-81
2022/05/08 00:28:57;;;;;;;34.20;27.77;;;11.20;99.90;;;;;;5075363;28;20071;-81
2022/05/08 00:31:23;;;;;;;34.83;28.52;;;11.20;99.90;;;;;;5039948;28;20032;-82
2022/05/08 00:33:49;;;;;;;36.88;29.30;;;11.20;99.90;;;;;;5075131;28;20114;-82
2022/05/08 00:36:18;;;;;;;36.85;27.75;;;11.20;99.90;;;;;;5074875;28;20033;-81
2022/05/08 00:38:44;;;;;;;36.67;29.05;;;11.20;99.90;;;;;;5057063;28;20032;-81
2022/05/08 00:41:10;;;;;;;37.83;29.90;;;11.20;99.90;;;;;;5074769;28;20040;-81
2022/05/08 00:43:38;;;;;;;37.00;29.48;;;11.20;99.90;;;;;;5041114;28;20037;-81
2022/05/08 00:46:06;;;;;;;37.20;29.30;;;11.20;99.90;;;;;;5047975;28;20040;-81
2022/05/08 00:48:32;;;;;;;41.20;31.48;;;11.10;99.90;;;;;;5074894;28;20078;-82
2022/05/08 00:51:00;;;;;;;39.75;31.05;;;11.10;99.90;;;;;;5074447;28;20051;-81
2022/05/08 00:53:27;;;;;;;41.70;31.90;;;11.10;99.90;;;;;;5074682;28;20016;-82
2022/05/08 00:55:55;;;;;;;48.53;35.50;;;11.10;99.90;;;;;;5074247;28;20039;-81
2022/05/08 00:58:21;;;;;;;48.88;36.08;;;11.10;99.90;;;;;;5056540;28;20488;-81
2022/05/08 01:00:49;;;;;;;56.22;39.22;;;11.10;99.90;;;;;;5056613;28;20119;-82
2022/05/08 01:03:15;;;;;;;55.55;37.88;;;11.10;99.90;;;;;;5056814;28;20032;-82
2022/05/08 01:05:41;;;;;;;53.85;38.28;;;11.10;99.90;;;;;;5052697;28;20078;-81
2022/05/08 01:08:11;;;;;;;53.30;38.40;;;11.10;99.90;;;;;;5036428;28;20119;-81
2022/05/08 01:10:39;;;;;;;55.30;38.97;;;11.10;99.90;;;;;;5044304;28;20049;-81
2022/05/08 01:13:08;;;;;;;56.95;40.45;;;11.10;99.90;;;;;;5054590;28;20029;-81
2022/05/08 01:15:45;;;;;;;59.33;40.03;;;11.10;99.90;;;;;;5036375;28;20025;-81
2022/05/08 01:18:12;;;;;;;58.38;39.63;;;11.10;99.90;;;;;;5054012;28;20028;-81
2022/05/08 01:20:40;;;;;;;55.03;37.53;;;11.00;99.90;;;;;;5036329;28;20029;-81
2022/05/08 01:23:06;;;;;;;56.83;39.92;;;11.10;99.90;;;;;;5054234;28;20028;-81
2022/05/08 01:25:33;;;;;;;55.40;37.80;;;11.10;99.90;;;;;;5058767;28;20024;-82
2022/05/08 01:27:59;;;;;;;61.35;41.83;;;11.10;99.90;;;;;;5056028;28;20070;-80
2022/05/08 01:30:27;;;;;;;60.45;39.63;;;11.10;99.90;;;;;;5055757;28;20024;-80
2022/05/08 01:32:53;;;;;;;57.92;39.60;;;11.10;99.90;;;;;;5074274;28;20032;-80
2022/05/08 01:35:19;;;;;;;60.67;40.22;;;11.10;99.90;;;;;;5072916;28;20028;-80
2022/05/08 01:37:45;;;;;;;56.20;39.15;;;11.10;99.90;;;;;;5074083;28;20020;-80
2022/05/08 01:40:11;;;;;;;59.95;39.78;;;11.10;99.90;;;;;;5073563;28;20032;-80
2022/05/08 01:42:37;;;;;;;56.50;39.30;;;11.10;99.90;;;;;;5073596;28;20028;-80
2022/05/08 01:45:03;;;;;;;60.00;39.38;;;11.10;99.90;;;;;;5055436;28;20067;-80
2022/05/08 01:50:26;;;;;;;58.00;38.80;;;11.10;99.90;;;;;;5050074;28;20036;-80
2022/05/08 01:52:52;;;;;;;53.35;37.10;;;11.10;99.90;;;;;;5055317;28;20025;-80
2022/05/08 01:55:18;;;;;;;52.50;36.63;;;11.10;99.90;;;;;;5072660;28;20465;-80
2022/05/08 01:57:44;;;;;;;50.05;36.38;;;11.10;99.90;;;;;;5064494;28;20036;-80
2022/05/08 02:00:10;;;;;;;54.55;37.60;;;11.10;99.90;;;;;;5073207;28;20086;-80
2022/05/08 02:02:37;;;;;;;50.70;35.72;;;11.10;99.90;;;;;;5073047;28;20024;-82
2022/05/08 02:05:03;;;;;;;53.88;36.33;;;11.10;99.90;;;;;;5066068;28;20109;-82
2022/05/08 02:07:29;;;;;;;53.10;37.13;;;11.10;99.90;;;;;;5055507;28;20032;-81
2022/05/08 02:09:56;;;;;;;50.42;35.65;;;11.10;99.90;;;;;;5073256;28;20025;-81
2022/05/08 02:12:21;;;;;;;54.55;38.47;;;11.10;99.90;;;;;;5072049;28;20035;-80
2022/05/08 02:14:47;;;;;;;53.67;37.22;;;11.10;99.90;;;;;;5056175;28;20458;-80
2022/05/08 02:17:13;;;;;;;52.55;36.03;;;11.10;99.90;;;;;;5073822;28;20032;-79
2022/05/08 02:19:38;;;;;;;52.38;36.67;;;11.10;99.90;;;;;;5073747;28;20060;-80
2022/05/08 02:22:05;;;;;;;54.30;37.67;;;11.20;99.90;;;;;;5073218;28;20464;-80
2022/05/08 02:24:30;;;;;;;57.03;38.60;;;11.10;99.90;;;;;;5072969;28;20024;-80
2022/05/08 02:26:56;;;;;;;55.22;38.25;;;11.20;99.90;;;;;;5073379;28;20413;-80
2022/05/08 02:29:22;;;;;;;57.35;37.63;;;11.20;99.90;;;;;;5073270;28;20029;-80
2022/05/08 02:31:47;;;;;;;64.47;39.75;;;11.10;99.90;;;;;;5073516;28;20059;-80
2022/05/08 02:34:13;;;;;;;58.75;39.13;;;11.20;99.90;;;;;;5072766;28;20059;-79
2022/05/08 02:36:39;;;;;;;59.00;38.95;;;11.20;99.90;;;;;;5073312;28;20024;-80
2022/05/08 02:39:05;;;;;;;57.60;38.55;;;11.20;99.90;;;;;;5073442;28;20032;-80
2022/05/08 02:41:30;;;;;;;57.58;37.17;;;11.20;99.90;;;;;;5071714;28;20041;-79
2022/05/08 02:43:56;;;;;;;55.65;37.97;;;11.20;99.90;;;;;;5048773;28;20025;-80
2022/05/08 02:46:21;;;;;;;56.58;38.53;;;11.20;99.90;;;;;;5054942;28;20424;-79
2022/05/08 02:48:49;;;;;;;54.17;36.70;;;11.20;99.90;;;;;;5072452;28;20396;-80
2022/05/08 02:51:15;;;;;;;55.05;36.30;;;11.20;99.90;;;;;;5071759;28;20136;-79
2022/05/08 02:53:40;;;;;;;48.10;33.35;;;11.20;99.90;;;;;;5067437;28;20111;-79
2022/05/08 02:58:50;;;;;;;51.08;34.28;;;11.20;99.90;;;;;;5072727;28;20082;-79
2022/05/08 03:01:16;;;;;;;47.95;34.00;;;11.20;99.90;;;;;;5054757;28;20469;-79
2022/05/08 03:03:41;;;;;;;53.60;35.40;;;11.20;99.90;;;;;;5072527;28;20465;-79
2022/05/08 03:06:09;;;;;;;48.47;33.78;;;11.20;99.90;;;;;;5072230;28;20725;-80
2022/05/08 03:08:34;;;;;;;52.10;35.35;;;11.20;99.90;;;;;;5072391;28;20039;-80
2022/05/08 03:13:44;;;;;;;49.70;34.60;;;11.20;99.90;;;;;;5072064;28;20070;-80
2022/05/08 03:16:11;;;;;;;50.40;35.33;;;11.20;99.90;;;;;;5072342;28;20017;-80
2022/05/08 03:18:41;;;;;;;51.05;35.13;;;11.20;99.90;;;;;;5072394;28;20341;-80
2022/05/08 03:21:11;;;;;;;50.13;34.53;;;11.20;99.90;;;;;;5072211;28;20465;-80
2022/05/08 03:23:37;;;;;;;50.63;34.35;;;11.20;99.90;;;;;;5071903;28;20021;-80
2022/05/08 03:26:06;;;;;;;48.35;34.47;;;11.20;99.90;;;;;;5071737;28;20366;-80
2022/05/08 03:28:33;;;;;;;50.30;34.75;;;11.30;99.90;;;;;;5072311;28;20064;-80
2022/05/08 03:30:59;;;;;;;50.80;33.58;;;11.30;99.90;;;;;;5072422;28;20115;-81
2022/05/08 03:33:28;;;;;;;45.83;31.85;;;11.20;99.90;;;;;;5072232;28;20508;-81
2022/05/08 03:35:54;;;;;;;45.90;33.85;;;11.30;99.90;;;;;;5071811;28;20020;-82
2022/05/08 03:38:20;;;;;;;44.17;32.90;;;11.20;99.90;;;;;;5072119;28;20104;-81
2022/05/08 03:40:46;;;;;;;48.90;33.58;;;11.30;99.90;;;;;;5054239;28;20035;-81
2022/05/08 03:43:11;;;;;;;46.78;33.65;;;11.30;99.90;;;;;;5053511;28;20028;-81
2022/05/08 03:45:37;;;;;;;49.08;34.25;;;11.30;99.90;;;;;;5072083;28;20036;-81
2022/05/08 03:48:03;;;;;;;46.38;33.92;;;11.30;99.90;;;;;;5072311;28;20028;-81
2022/05/08 03:50:29;;;;;;;45.40;33.47;;;11.30;99.90;;;;;;5071878;28;20125;-81
2022/05/08 03:52:56;;;;;;;45.83;33.58;;;11.30;99.90;;;;;;5071008;28;20546;-81
2022/05/08 03:55:21;;;;;;;40.88;30.42;;;11.30;99.90;;;;;;5072317;28;20028;-80
2022/05/08 03:57:47;;;;;;;42.63;31.88;;;11.30;99.90;;;;;;5053674;28;20097;-87
2022/05/08 04:00:14;;;;;;;47.00;33.95;;;11.30;99.90;;;;;;5055747;28;20342;-87
2022/05/08 04:02:40;;;;;;;43.80;32.25;;;11.30;99.90;;;;;;5055561;28;20060;-86
2022/05/08 04:05:07;;;;;;;44.42;31.77;;;11.40;99.90;;;;;;5055590;28;20473;-86
2022/05/08 04:07:33;;;;;;;46.75;33.42;;;11.40;99.90;;;;;;5037925;28;20029;-86
2022/05/08 04:09:59;;;;;;;42.88;32.00;;;11.30;99.90;;;;;;5037624;28;20409;-87
2022/05/08 04:12:26;;;;;;;45.38;32.90;;;11.40;99.90;;;;;;5058563;28;20373;-87
2022/05/08 04:14:52;;;;;;;41.65;31.10;;;11.40;99.90;;;;;;5057536;28;20082;-87
2022/05/08 04:17:18;;;;;;;43.55;32.30;;;11.40;99.90;;;;;;5057414;28;20082;-86
2022/05/08 04:19:44;;;;;;;41.50;31.90;;;11.40;99.90;;;;;;5057205;28;20021;-87
2022/05/08 04:24:54;;;;;;;40.05;31.10;;;11.40;99.90;;;;;;5074950;28;20062;-87
2022/05/08 04:27:19;;;;;;;40.58;31.77;;;11.40;99.90;;;;;;5075739;28;20020;-87
2022/05/08 04:29:45;;;;;;;42.33;33.25;;;11.40;99.90;;;;;;5075387;28;20024;-87
2022/05/08 04:32:11;;;;;;;41.42;32.28;;;11.40;99.90;;;;;;5075353;28;20051;-87
2022/05/08 04:34:37;;;;;;;44.35;32.70;;;11.50;99.90;;;;;;5075226;28;20025;-87
2022/05/08 04:37:03;;;;;;;42.03;31.65;;;11.40;99.90;;;;;;5072708;28;20025;-89
2022/05/08 04:39:29;;;;;;;43.75;33.22;;;11.50;99.90;;;;;;5048285;28;20020;-90
2022/05/08 04:41:55;;;;;;;43.75;32.50;;;11.50;99.90;;;;;;5067684;28;20025;-90
2022/05/08 04:44:21;;;;;;;42.67;32.60;;;11.50;99.90;;;;;;5043459;28;20052;-90
2022/05/08 04:46:47;;;;;;;41.78;32.55;;;11.50;99.90;;;;;;5057409;28;20094;-90
2022/05/08 04:49:13;;;;;;;41.22;32.28;;;11.50;99.90;;;;;;5075167;28;20020;-89
2022/05/08 04:51:38;;;;;;;43.42;32.50;;;11.60;99.90;;;;;;5072029;28;20045;-89
2022/05/08 04:54:04;;;;;;;43.00;33.15;;;11.60;99.90;;;;;;5055957;28;20028;-89
2022/05/08 04:56:31;;;;;;;42.30;32.17;;;11.60;99.90;;;;;;5044983;28;20483;-83
2022/05/08 04:58:57;;;;;;;38.47;31.20;;;11.60;99.90;;;;;;5068447;28;20074;-89
2022/05/08 05:01:22;;;;;;;38.10;31.52;;;11.60;99.90;;;;;;5074030;28;20465;-91
2022/05/08 05:03:49;;;;;;;39.92;31.70;;;11.70;99.90;;;;;;5075065;28;20020;-92
2022/05/08 05:06:14;;;;;;;40.45;32.25;;;11.70;99.90;;;;;;5072136;28;20025;-91
2022/05/08 05:08:40;;;;;;;35.85;29.63;;;11.80;99.90;;;;;;5068885;28;20917;-91
2022/05/08 05:11:08;;;;;;;40.00;31.88;;;11.80;99.90;;;;;;5039380;28;20079;-91
2022/05/08 05:13:36;;;;;;;39.55;32.80;;;11.80;99.90;;;;;;5046297;28;20350;-91
2022/05/08 05:16:03;;;;;;;39.92;31.90;;;11.80;99.90;;;;;;5056791;28;20059;-91
2022/05/08 05:18:29;;;;;;;42.05;33.20;;;11.90;99.90;;;;;;5074427;28;20016;-82
2022/05/08 05:20:54;;;;;;;39.97;30.15;;;11.90;99.90;;;;;;5046994;28;20028;-85
2022/05/08 05:23:20;;;;;;;43.28;34.22;;;11.90;99.90;;;;;;5065139;28;20029;-82
2022/05/08 05:25:45;;;;;;;40.05;31.65;;;11.90;99.90;;;;;;5072029;28;20025;-92
2022/05/08 05:28:11;;;;;;;37.13;30.88;;;12.00;99.90;;;;;;5056247;28;20024;-92
2022/05/08 05:30:37;;;;;;;36.67;29.67;;;12.00;99.90;;;;;;5074278;28;20062;-92
2022/05/08 05:33:02;;;;;;;37.50;30.42;;;12.10;99.90;;;;;;5074114;28;20021;-92
2022/05/08 05:35:28;;;;;;;37.50;30.15;;;12.10;99.90;;;;;;5074465;28;20025;-92
2022/05/08 05:37:53;;;;;;;37.00;30.88;;;12.10;99.90;;;;;;5047811;28;20027;-92
2022/05/08 05:40:20;;;;;;;35.78;29.88;;;12.10;99.90;;;;;;5074027;28;20064;-90
2022/05/08 05:42:46;;;;;;;38.45;31.77;;;12.10;99.90;;;;;;5074145;28;20024;-92
2022/05/08 05:45:12;;;;;;;32.83;28.10;;;12.20;99.90;;;;;;5056118;28;20111;-84
2022/05/08 05:47:50;;;;;;;40.72;32.20;;;12.20;99.90;;;;;;5055857;28;20056;-84
2022/05/08 05:50:17;;;;;;;36.38;31.08;;;12.20;99.90;;;;;;5077700;28;20987;-84
2022/05/08 05:52:43;;;;;;;36.90;30.52;;;12.30;99.90;;;;;;5077900;28;20360;-84
2022/05/08 05:55:09;;;;;;;35.53;29.73;;;12.30;99.90;;;;;;5072108;28;20043;-84
2022/05/08 05:57:39;;;;;;;34.20;30.25;;;12.40;99.90;;;;;;5061972;28;20101;-84
2022/05/08 06:00:12;;;;;;;33.13;28.95;;;12.40;99.90;;;;;;5073285;28;20031;-84
2022/05/08 06:02:39;;;;;;;37.10;30.88;;;12.40;99.90;;;;;;5073784;28;20115;-84
2022/05/08 06:05:11;;;;;;;36.28;29.80;;;12.40;99.90;;;;;;5077929;28;20468;-83
2022/05/08 06:07:41;;;;;;;39.50;31.15;;;12.50;99.90;;;;;;5061640;28;20403;-83
2022/05/08 06:10:09;;;;;;;34.40;30.20;;;12.50;99.90;;;;;;5073018;28;20023;-83
2022/05/08 06:12:35;;;;;;;37.08;30.67;;;12.50;99.90;;;;;;5077069;28;20017;-83
2022/05/08 06:15:01;;;;;;;35.00;30.92;;;12.60;99.90;;;;;;5083666;28;20029;-82
2022/05/08 06:17:26;;;;;;;31.38;27.73;;;12.70;99.90;;;;;;5084584;28;20012;-83
2022/05/08 06:19:52;;;;;;;33.28;29.67;;;12.70;99.90;;;;;;5085340;28;20099;-81
2022/05/08 06:22:18;;;;;;;32.15;27.42;;;12.80;99.90;;;;;;5075768;28;20070;-81
2022/05/08 06:24:43;;;;;;;33.67;29.50;;;12.80;99.90;;;;;;5089646;28;20122;-81
2022/05/08 06:27:09;;;;;;;35.53;29.88;;;12.80;99.90;;;;;;5081942;28;20487;-81
2022/05/08 06:29:35;;;;;;;33.05;29.35;;;12.80;99.90;;;;;;5064193;28;20039;-82
2022/05/08 06:32:01;;;;;;;35.08;29.50;;;12.90;99.90;;;;;;5073638;28;20864;-83
2022/05/08 06:34:27;;;;;;;34.15;29.65;;;12.90;99.90;;;;;;5061774;28;20366;-81
2022/05/08 06:36:54;;;;;;;32.22;28.77;;;12.90;99.90;;;;;;5081526;28;20039;-81
2022/05/08 06:39:20;;;;;;;32.47;28.55;;;12.90;99.90;;;;;;5064840;28;20030;-82
2022/05/08 06:41:46;;;;;;;32.53;28.27;;;12.90;99.90;;;;;;5081522;28;20023;-90
2022/05/08 06:44:13;;;;;;;29.73;26.55;;;12.90;99.90;;;;;;5084014;28;20495;-90
2022/05/08 06:46:39;;;;;;;31.27;25.52;;;12.90;99.90;;;;;;5082303;28;20020;-90
2022/05/08 06:49:07;;;;;;;29.75;26.45;;;12.90;99.90;;;;;;5066096;28;20029;-91
2022/05/08 06:51:34;;;;;;;27.77;24.77;;;13.00;99.90;;;;;;5041820;28;20045;-92
2022/05/08 06:54:00;;;;;;;28.23;24.33;;;13.10;99.90;;;;;;5044639;28;20056;-90
2022/05/08 06:56:26;;;;;;;27.52;24.60;;;13.20;99.90;;;;;;5041967;28;20440;-91
2022/05/08 07:01:42;;;;;;;23.27;20.88;;;13.40;99.90;;;;;;5037638;28;20035;-90
2022/05/08 07:04:12;;;;;;;22.77;20.35;;;13.50;99.90;;;;;;5041495;28;20478;-89
2022/05/08 07:06:38;;;;;;;25.02;21.38;;;13.60;99.90;;;;;;5035351;28;20504;-91
2022/05/08 07:09:05;;;;;;;20.90;17.92;;;13.70;99.90;;;;;;5036076;28;20068;-90
2022/05/08 07:11:34;;;;;;;20.55;17.75;;;13.70;99.90;;;;;;5038784;28;20128;-89
2022/05/08 07:14:00;;;;;;;20.60;18.48;;;13.70;99.90;;;;;;5034773;28;20064;-81
2022/05/08 07:16:31;;;;;;;20.45;18.08;;;13.70;99.90;;;;;;5039070;28;20024;-81
2022/05/08 07:18:57;;;;;;;18.70;16.73;;;13.70;99.90;;;;;;5043956;28;20049;-81
2022/05/08 07:21:23;;;;;;;20.55;17.88;;;13.70;99.90;;;;;;5032321;28;20052;-85
2022/05/08 07:23:48;;;;;;;21.75;17.10;;;13.70;99.90;;;;;;5034132;28;20025;-83
2022/05/08 07:26:14;;;;;;;19.30;16.77;;;13.70;99.90;;;;;;5037844;28;20043;-83
2022/05/08 07:28:43;;;;;;;20.52;16.95;;;13.70;99.90;;;;;;5035830;28;20041;-89
2022/05/08 07:31:11;;;;;;;18.58;16.55;;;13.60;99.90;;;;;;5035278;28;20041;-89
2022/05/08 07:33:37;;;;;;;17.13;15.32;;;13.70;99.90;;;;;;5035158;28;20089;-89
2022/05/08 07:36:13;;;;;;;17.58;15.65;;;13.70;99.90;;;;;;5040652;28;20014;-81
2022/05/08 07:38:46;;;;;;;18.85;16.90;;;13.70;99.90;;;;;;5037844;28;20592;-82
2022/05/08 07:41:14;;;;;;;19.20;15.38;;;13.70;99.90;;;;;;5036774;28;20029;-81
2022/05/08 07:43:42;;;;;;;16.58;14.80;;;13.70;99.90;;;;;;5041569;28;20496;-81
2022/05/08 07:46:07;;;;;;;17.80;15.57;;;13.70;99.90;;;;;;5039517;28;20466;-81
2022/05/08 07:48:33;;;;;;;15.43;13.88;;;13.80;99.90;;;;;;5041222;28;20029;-81
2022/05/08 07:51:00;;;;;;;17.13;15.25;;;13.80;99.90;;;;;;5066778;28;20503;-84
2022/05/08 07:53:28;;;;;;;16.42;14.77;;;13.90;99.90;;;;;;5079918;28;20012;-84
2022/05/08 07:55:53;;;;;;;17.88;16.08;;;13.90;99.90;;;;;;5080253;28;20028;-85
2022/05/08 07:58:20;;;;;;;16.20;14.40;;;14.00;99.90;;;;;;5060179;28;20587;-84
2022/05/08 08:00:46;;;;;;;15.85;13.55;;;14.10;99.90;;;;;;5083803;28;20025;-84
2022/05/08 08:03:11;;;;;;;16.98;15.15;;;14.20;99.90;;;;;;5059606;28;20035;-88
2022/05/08 08:05:38;;;;;;;21.55;16.20;;;14.20;99.90;;;;;;5063020;28;20032;-88
2022/05/08 08:08:04;;;;;;;17.17;15.40;;;14.20;99.90;;;;;;5067030;28;20039;-88
2022/05/08 08:10:29;;;;;;;16.77;14.80;;;14.20;99.90;;;;;;5074522;28;20040;-89
2022/05/08 08:12:56;;;;;;;18.50;15.30;;;14.20;99.90;;;;;;5079065;28;21043;-88
2022/05/08 08:15:22;;;;;;;16.27;14.55;;;14.20;99.90;;;;;;5061913;28;20063;-89
2022/05/08 08:17:48;;;;;;;19.65;15.63;;;14.10;99.90;;;;;;5058653;28;20032;-84
2022/05/08 08:20:14;;;;;;;16.75;14.77;;;14.10;99.90;;;;;;5081873;28;20016;-84
2022/05/08 08:22:39;;;;;;;18.55;16.02;;;14.10;99.90;;;;;;5079831;28;20480;-85
2022/05/08 08:25:08;;;;;;;17.58;15.57;;;14.20;99.90;;;;;;5080897;28;20031;-84
2022/05/08 08:27:33;;;;;;;16.88;15.20;;;14.20;99.90;;;;;;5072942;28;20039;-80
2022/05/08 08:29:59;;;;;;;17.85;15.68;;;14.20;99.90;;;;;;5076606;28;20099;-89
2022/05/08 08:32:27;;;;;;;18.13;16.25;;;14.30;99.90;;;;;;5064039;28;20131;-80
2022/05/08 08:34:53;;;;;;;16.77;14.98;;;14.40;99.90;;;;;;5067761;28;20391;-83
2022/05/08 08:37:31;;;;;;;15.55;13.95;;;14.60;99.90;;;;;;5079773;28;20025;-82
2022/05/08 08:39:56;;;;;;;15.13;13.57;;;14.70;99.90;;;;;;5081825;28;20032;-82
2022/05/08 08:42:29;;;;;;;16.45;14.75;;;14.80;99.90;;;;;;5079116;28;20029;-82
2022/05/08 08:48:03;;;;;;;15.25;13.60;;;14.90;99.90;;;;;;5079330;28;20086;-84
2022/05/08 08:50:29;;;;;;;18.27;12.45;;;15.20;99.90;;;;;;5083651;28;20068;-84
2022/05/08 08:52:58;;;;;;;14.45;12.07;;;15.40;99.90;;;;;;5079238;28;20485;-85
2022/05/08 08:55:24;;;;;;;14.52;12.30;;;15.50;99.90;;;;;;5075175;28;20461;-84
2022/05/08 08:57:50;;;;;;;12.77;11.40;;;15.70;99.90;;;;;;5084974;28;20473;-85
2022/05/08 09:00:18;;;;;;;12.00;10.70;;;15.70;99.90;;;;;;5085634;28;20020;-87
2022/05/08 09:02:44;;;;;;;14.48;10.77;;;15.70;99.90;;;;;;5079874;28;20035;-84
2022/05/08 09:05:10;;;;;;;14.02;11.05;;;15.70;99.90;;;;;;5074896;28;20021;-85
2022/05/08 09:07:39;;;;;;;14.98;11.30;;;15.70;99.90;;;;;;5080267;28;20460;-84
2022/05/08 09:10:09;;;;;;;12.88;11.52;;;15.60;99.90;;;;;;5064336;28;20021;-82
2022/05/08 09:12:35;;;;;;;14.05;11.45;;;15.50;99.90;;;;;;5080561;28;20024;-77
2022/05/08 09:15:27;;;;;;;11.25;10.15;;;15.50;99.90;;;;;;5083346;28;20089;-79
2022/05/08 09:17:57;;;;;;;13.40;10.90;;;15.50;99.90;;;;;;5063633;28;20033;-76
2022/05/08 09:20:48;;;;;;;10.32;9.18;;;15.60;99.90;;;;;;5084051;28;20119;-76
2022/05/08 09:23:14;;;;;;;9.93;8.90;;;15.80;99.90;;;;;;5082553;28;20040;-78
2022/05/08 09:26:08;;;;;;;10.57;7.75;;;15.90;99.90;;;;;;5083551;28;20060;-76
2022/05/08 09:28:41;;;;;;;8.65;7.03;;;16.10;99.90;;;;;;5080952;28;20051;-76
2022/05/08 09:31:12;;;;;;;8.43;7.45;;;16.20;99.90;;;;;;5081959;28;20445;-77
2022/05/08 09:33:39;;;;;;;7.35;6.60;;;16.40;99.90;;;;;;5079979;28;20404;-77
2022/05/08 09:36:25;;;;;;;8.30;6.88;;;16.40;99.90;;;;;;5081848;28;20028;-77
2022/05/08 09:38:57;;;;;;;12.40;8.02;;;16.40;99.90;;;;;;5078189;28;20028;-83
2022/05/08 09:41:27;;;;;;;7.88;7.05;;;16.40;99.90;;;;;;5082453;28;20093;-83
2022/05/08 09:43:55;;;;;;;7.68;6.95;;;16.40;99.90;;;;;;5080168;28;20028;-84
2022/05/08 09:46:21;;;;;;;8.10;7.30;;;16.30;99.90;;;;;;5081099;28;20024;-83
2022/05/08 09:48:48;;;;;;;9.27;6.70;;;16.30;99.90;;;;;;5078281;28;20085;-82
2022/05/08 09:51:15;;;;;;;9.70;7.32;;;16.20;99.90;;;;;;5080343;28;20504;-83
2022/05/08 09:53:43;;;;;;;9.48;7.95;;;16.10;99.90;;;;;;5076759;28;20025;-78
2022/05/08 09:56:11;;;;;;;8.57;6.78;;;16.10;99.90;;;;;;5078857;28;20032;-77
2022/05/08 09:58:40;;;;;;;7.45;6.75;;;16.20;99.90;;;;;;5080156;28;20050;-83
2022/05/08 10:01:08;;;;;;;7.85;7.05;;;16.20;99.90;;;;;;5078780;28;20039;-78
2022/05/08 10:03:34;;;;;;;7.40;6.70;;;16.30;99.90;;;;;;5059210;28;20115;-83
2022/05/08 10:06:00;;;;;;;7.63;6.88;;;16.20;99.90;;;;;;5079256;28;20822;-83
2022/05/08 10:08:33;;;;;;;7.60;6.75;;;16.20;99.90;;;;;;5076793;28;20099;-83
2022/05/08 10:13:53;;;;;;;10.95;7.35;;;16.10;99.90;;;;;;5079307;28;20031;-78
2022/05/08 10:16:50;;;;;;;7.32;6.63;;;16.00;99.90;;;;;;5081534;28;20040;-78
2022/05/08 10:21:56;;;;;;;8.15;7.35;;;16.20;99.90;;;;;;5089263;28;20036;-81
2022/05/08 10:24:30;;;;;;;7.97;6.60;;;16.30;99.90;;;;;;5083619;28;20032;-82
2022/05/08 10:27:14;;;;;;;8.10;7.30;;;16.40;99.90;;;;;;5058749;28;20540;-75
2022/05/08 10:29:40;;;;;;;9.25;7.30;;;16.50;99.90;;;;;;5080123;28;20499;-81
2022/05/08 10:32:07;;;;;;;8.02;7.10;;;16.50;99.90;;;;;;5065753;28;20027;-81
2022/05/08 10:34:34;;;;;;;9.13;6.65;;;16.50;99.90;;;;;;5061827;28;20024;-81
2022/05/08 10:37:12;;;;;;;9.13;7.30;;;16.50;99.90;;;;;;5082453;28;20024;-81
2022/05/08 10:39:43;;;;;;;8.70;6.80;;;16.40;99.90;;;;;;5064561;28;20036;-81
2022/05/08 10:42:27;;;;;;;10.20;7.10;;;16.30;99.90;;;;;;5064693;28;20027;-81
2022/05/08 10:44:54;;;;;;;9.98;7.28;;;16.30;99.90;;;;;;5066416;28;20028;-81
2022/05/08 10:47:40;;;;;;;8.10;7.15;;;16.10;99.90;;;;;;5079315;28;20146;-83
2022/05/08 10:50:13;;;;;;;8.77;7.40;;;16.10;99.90;;;;;;5077847;28;20533;-81
2022/05/08 10:52:41;;;;;;;9.13;7.75;;;16.00;99.90;;;;;;5062872;28;20039;-83
2022/05/08 10:55:08;;;;;;;11.75;7.55;;;16.10;99.90;;;;;;5083242;28;20028;-83
2022/05/08 10:57:38;;;;;;;8.40;7.53;;;16.10;99.90;;;;;;5074826;28;20024;-84
2022/05/08 11:00:06;;;;;;;8.98;7.80;;;16.10;99.90;;;;;;5085878;28;20029;-90
2022/05/08 11:02:41;;;;;;;11.82;8.50;;;16.10;99.90;;;;;;5077444;28;20028;-79
2022/05/08 11:05:12;;;;;;;10.55;7.80;;;16.00;99.90;;;;;;5080139;28;20024;-83
2022/05/08 11:07:39;;;;;;;10.35;8.10;;;16.00;99.90;;;;;;5080370;28;20024;-84
2022/05/08 11:10:21;;;;;;;8.57;7.60;;;16.00;99.90;;;;;;5064125;28;20020;-83
2022/05/08 11:13:09;;;;;;;10.00;6.95;;;16.00;99.90;;;;;;5068918;28;20042;-83
2022/05/08 11:15:51;;;;;;;8.40;7.53;;;16.10;99.90;;;;;;5083138;28;20021;-84
2022/05/08 11:18:20;;;;;;;8.90;7.22;;;16.20;99.90;;;;;;5087753;28;20024;-83
2022/05/08 11:20:48;;;;;;;8.40;6.95;;;16.40;99.90;;;;;;5081617;28;20024;-83
2022/05/08 11:23:21;;;;;;;7.85;6.20;;;16.70;99.90;;;;;;5088717;28;20157;-82
2022/05/08 11:25:55;;;;;;;7.38;6.68;;;16.90;99.90;;;;;;5085996;28;20185;-82
2022/05/08 11:28:24;;;;;;;7.90;6.68;;;17.30;99.90;;;;;;5082832;28;20095;-83
2022/05/08 11:30:51;;;;;;;6.18;5.55;;;17.50;99.90;;;;;;5086262;28;20024;-82
2022/05/08 11:36:05;;;;;;;8.32;5.85;;;18.10;99.90;;;;;;5086947;28;20036;-82
2022/05/08 11:38:51;;;;;;;6.80;5.85;;;18.30;99.90;;;;;;5083368;28;20477;-83
2022/05/08 11:41:22;;;;;;;8.95;5.88;;;18.40;99.90;;;;;;5086143;28;20029;-86
2022/05/08 11:43:55;;;;;;;6.80;5.90;;;18.40;99.90;;;;;;5082914;28;20532;-85
2022/05/08 11:46:38;;;;;;;6.28;5.68;;;18.30;99.90;;;;;;5086167;28;20024;-85
2022/05/08 11:49:24;;;;;;;10.73;6.43;;;18.20;99.90;;;;;;5088344;28;20021;-85
2022/05/08 11:51:54;;;;;;;7.55;5.63;;;18.00;99.90;;;;;;5068917;28;20040;-85
2022/05/08 11:54:37;;;;;;;6.97;5.97;;;17.80;99.90;;;;;;5079964;28;20024;-86
2022/05/08 11:57:17;;;;;;;8.82;6.55;;;17.70;99.90;;;;;;5064934;28;20104;-85
2022/05/08 12:00:04;;;;;;;13.18;6.47;;;17.50;99.90;;;;;;5074790;28;20031;-85
2022/05/08 12:02:46;;;;;;;8.30;6.30;;;17.40;99.90;;;;;;5090051;28;20036;-85
2022/05/08 12:05:33;;;;;;;7.43;6.43;;;17.30;99.90;;;;;;5065075;28;20031;-81
2022/05/08 12:07:59;;;;;;;9.05;7.18;;;17.30;99.90;;;;;;5078542;28;20031;-81
2022/05/08 12:10:40;;;;;;;7.90;6.82;;;17.50;99.90;;;;;;5086130;28;20029;-81
2022/05/08 12:13:06;;;;;;;8.23;7.35;;;17.50;99.90;;;;;;5085793;28;20031;-81
2022/05/08 12:15:32;;;;;;;7.90;7.10;;;17.60;99.90;;;;;;5083537;28;20025;-81
2022/05/08 12:18:01;;;;;;;8.25;7.35;;;17.70;99.90;;;;;;5082022;28;20465;-81
2022/05/08 12:20:35;;;;;;;7.40;6.60;;;17.70;99.90;;;;;;5063404;28;20108;-81
2022/05/08 12:23:06;;;;;;;8.50;6.97;;;17.90;99.90;;;;;;5089024;28;20095;-82
2022/05/08 12:25:40;;;;;;;9.75;7.13;;;17.90;99.90;;;;;;5084843;28;20472;-81
2022/05/08 12:28:13;;;;;;;7.65;6.85;;;18.00;99.90;;;;;;5075981;28;20103;-82
2022/05/08 12:30:42;;;;;;;10.77;6.90;;;18.10;99.90;;;;;;5080512;28;20038;-83
2022/05/08 12:33:10;;;;;;;10.02;7.53;;;18.10;99.90;;;;;;5083757;28;20012;-85
2022/05/08 12:35:36;;;;;;;7.50;6.55;;;17.90;99.90;;;;;;5088771;28;20371;-81
2022/05/08 12:38:02;;;;;;;6.97;6.28;;;17.80;99.90;;;;;;5087240;28;20029;-81
2022/05/08 12:40:29;;;;;;;10.32;6.38;;;17.70;99.90;;;;;;5088641;28;20100;-82
2022/05/08 12:42:54;;;;;;;12.90;8.63;;;17.60;99.90;;;;;;5069719;28;20024;-81
2022/05/08 12:45:20;;;;;;;9.73;8.10;;;17.60;99.90;;;;;;5086657;28;20030;-81
2022/05/08 12:47:45;;;;;;;8.27;7.35;;;17.50;99.90;;;;;;5087314;28;20016;-82
2022/05/08 12:50:11;;;;;;;8.77;7.45;;;17.50;99.90;;;;;;5071784;28;20044;-82
2022/05/08 12:52:37;;;;;;;10.57;6.97;;;17.40;99.90;;;;;;5082381;28;20107;-81
2022/05/08 12:55:06;;;;;;;7.88;6.78;;;17.40;99.90;;;;;;5081306;28;20020;-81
2022/05/08 13:00:16;;;;;;;9.27;6.70;;;17.20;99.90;;;;;;5078735;28;20077;-81
2022/05/08 13:02:41;;;;;;;7.95;6.90;;;17.30;99.90;;;;;;5080355;28;20455;-82
2022/05/08 13:05:08;;;;;;;7.50;6.22;;;17.40;99.90;;;;;;5084937;28;20049;-80